Time;durP1;ratioP1;P1;durP2;ratioP2;P2;SDS_P1;SDS_P2;PMS_P1;PMS_P2;Temp;Humidity;BMP_temperature;BMP_pressure;BME280_temperature;BME280_humidity;BME280_pressure;Samples;Min_cycle;Max_cycle;Signal;HPM_P1;HPM_P2
2022/09/27 00:02:11;;;;;;;0.20;0.20;;;10.20;99.90;;;;;;5090965;28;21001;-88
2022/09/27 00:04:37;;;;;;;0.20;0.20;;;10.20;99.90;;;;;;5088825;28;20209;-87
2022/09/27 00:07:02;;;;;;;0.20;0.20;;;10.20;99.90;;;;;;5074758;28;20550;-90
2022/09/27 00:09:29;;;;;;;0.20;0.20;;;10.30;99.90;;;;;;5087702;28;20181;-89
2022/09/27 00:11:54;;;;;;;0.20;0.20;;;10.20;99.90;;;;;;5095859;28;20207;-92
2022/09/27 00:14:20;;;;;;;0.20;0.20;;;10.20;99.90;;;;;;5086105;28;20499;-87
2022/09/27 00:16:45;;;;;;;0.20;0.20;;;10.20;99.90;;;;;;5095118;28;20217;-89
2022/09/27 00:19:14;;;;;;;0.20;0.20;;;10.20;99.90;;;;;;5088505;28;20180;-88
2022/09/27 00:21:41;;;;;;;0.20;0.20;;;10.20;99.90;;;;;;5096511;28;20185;-90
2022/09/27 00:24:10;;;;;;;0.20;0.20;;;10.20;99.90;;;;;;5090904;28;20437;-89
2022/09/27 00:26:35;;;;;;;0.20;0.20;;;10.20;99.90;;;;;;5081424;28;20452;-87
2022/09/27 00:29:01;;;;;;;0.20;0.20;;;10.20;99.90;;;;;;5069867;28;20446;-88
2022/09/27 00:31:29;;;;;;;0.20;0.20;;;10.20;99.90;;;;;;5093320;28;20633;-89
2022/09/27 00:33:57;;;;;;;0.20;0.20;;;10.20;99.90;;;;;;5074909;28;20687;-90
2022/09/27 00:36:24;;;;;;;0.20;0.20;;;10.20;99.90;;;;;;5091541;28;20500;-89
2022/09/27 00:38:50;;;;;;;0.20;0.20;;;10.20;99.90;;;;;;5093928;28;20485;-89
2022/09/27 00:41:21;;;;;;;0.20;0.20;;;10.20;99.90;;;;;;5074424;28;20443;-90
2022/09/27 00:44:00;;;;;;;0.20;0.20;;;10.20;99.90;;;;;;5093004;28;20282;-87
2022/09/27 00:46:47;;;;;;;0.20;0.20;;;10.20;99.90;;;;;;5091039;28;20446;-90
2022/09/27 00:49:39;;;;;;;0.20;0.20;;;10.20;99.90;;;;;;5081115;28;20447;-88
2022/09/27 00:52:22;;;;;;;0.20;0.20;;;10.20;99.90;;;;;;5078385;28;20446;-89
2022/09/27 00:54:51;;;;;;;0.20;0.20;;;10.20;99.90;;;;;;5079376;28;20449;-91
2022/09/27 00:57:20;;;;;;;0.20;0.20;;;10.20;99.90;;;;;;5087873;28;21001;-91
2022/09/27 01:00:00;;;;;;;0.20;0.20;;;10.20;99.90;;;;;;5076812;28;20536;-88
2022/09/27 01:02:26;;;;;;;0.20;0.20;;;10.20;99.90;;;;;;5073737;28;20434;-90
2022/09/27 01:04:54;;;;;;;0.20;0.20;;;10.20;99.90;;;;;;5075436;28;20930;-90
2022/09/27 01:07:20;;;;;;;0.20;0.20;;;10.20;99.90;;;;;;5069652;28;20503;-88
2022/09/27 01:09:45;;;;;;;0.20;0.20;;;10.20;99.90;;;;;;5093376;28;20435;-90
2022/09/27 01:12:34;;;;;;;0.20;0.20;;;10.20;99.90;;;;;;5071445;28;20209;-91
2022/09/27 01:15:30;;;;;;;0.20;0.20;;;10.20;99.90;;;;;;5092563;28;20197;-90
2022/09/27 01:18:20;;;;;;;0.20;0.20;;;10.20;99.90;;;;;;5090952;28;21297;-89
2022/09/27 01:21:14;;;;;;;0.20;0.20;;;10.20;99.90;;;;;;5093606;28;20480;-91
2022/09/27 01:23:45;;;;;;;0.20;0.20;;;10.20;99.90;;;;;;5084338;28;20702;-90
2022/09/27 01:26:18;;;;;;;0.20;0.20;;;10.20;99.90;;;;;;5093553;28;20477;-89
2022/09/27 01:28:56;;;;;;;0.20;0.20;;;10.20;99.90;;;;;;5093672;28;20443;-88
2022/09/27 01:31:26;;;;;;;0.20;0.20;;;10.20;99.90;;;;;;5070760;28;20436;-93
2022/09/27 01:34:15;;;;;;;0.20;0.20;;;10.20;99.90;;;;;;5089456;28;20447;-91
2022/09/27 01:37:22;;;;;;;0.20;0.20;;;10.20;99.90;;;;;;5077332;28;20468;-92
2022/09/27 01:40:01;;;;;;;0.20;0.20;;;10.20;99.90;;;;;;5060623;28;20463;-93
2022/09/27 01:42:39;;;;;;;0.20;0.20;;;10.20;99.90;;;;;;5071499;28;20427;-91
2022/09/27 01:45:22;;;;;;;0.20;0.20;;;10.20;99.90;;;;;;5088758;28;20438;-91
2022/09/27 01:47:58;;;;;;;0.20;0.20;;;10.20;99.90;;;;;;5086032;28;20938;-91
2022/09/27 01:50:38;;;;;;;0.20;0.20;;;10.20;99.90;;;;;;5084389;28;20437;-93
2022/09/27 01:53:28;;;;;;;0.20;0.20;;;10.20;99.90;;;;;;5074890;28;20451;-92
2022/09/27 01:55:55;;;;;;;0.20;0.20;;;10.20;99.90;;;;;;5090845;28;20450;-91
2022/09/27 01:58:40;;;;;;;0.20;0.20;;;10.20;99.90;;;;;;5076134;28;20472;-88
2022/09/27 02:01:08;;;;;;;0.20;0.20;;;10.20;99.90;;;;;;5070185;28;21037;-89
2022/09/27 02:03:42;;;;;;;0.20;0.20;;;10.20;99.90;;;;;;5090930;28;20469;-91
2022/09/27 02:06:24;;;;;;;0.20;0.20;;;10.10;99.90;;;;;;5094740;28;20488;-89
2022/09/27 02:08:57;;;;;;;0.20;0.20;;;10.20;99.90;;;;;;5072203;28;20506;-90
2022/09/27 02:11:22;;;;;;;0.10;0.10;;;10.20;99.90;;;;;;5061116;28;20467;-91
2022/09/27 02:13:56;;;;;;;0.20;0.20;;;10.20;99.90;;;;;;5086072;28;20519;-89
2022/09/27 02:16:43;;;;;;;0.20;0.20;;;10.20;99.90;;;;;;5092538;28;20192;-92
2022/09/27 02:19:28;;;;;;;0.10;0.10;;;10.20;99.90;;;;;;5091553;28;20535;-90
2022/09/27 02:22:05;;;;;;;0.20;0.20;;;10.20;99.90;;;;;;5090696;28;20439;-91
2022/09/27 02:24:41;;;;;;;0.20;0.20;;;10.20;99.90;;;;;;5093587;28;20996;-91
2022/09/27 02:27:33;;;;;;;0.20;0.20;;;10.10;99.90;;;;;;5088442;28;20427;-91
2022/09/27 02:30:06;;;;;;;0.20;0.20;;;10.20;99.90;;;;;;5081396;28;20451;-91
2022/09/27 02:32:33;;;;;;;0.20;0.20;;;10.20;99.90;;;;;;5090840;28;20431;-90
2022/09/27 02:35:02;;;;;;;0.20;0.20;;;10.10;99.90;;;;;;5069527;28;20439;-90
2022/09/27 02:37:28;;;;;;;0.20;0.20;;;10.20;99.90;;;;;;5075819;28;20475;-89
2022/09/27 02:39:54;;;;;;;0.20;0.20;;;10.20;99.90;;;;;;5087675;28;20443;-91
2022/09/27 02:42:20;;;;;;;0.20;0.20;;;10.10;99.90;;;;;;5075324;28;20764;-90
2022/09/27 02:44:45;;;;;;;0.20;0.20;;;10.10;99.90;;;;;;5074099;28;20245;-90
2022/09/27 02:47:48;;;;;;;0.20;0.20;;;10.10;99.90;;;;;;5079991;28;20201;-90
2022/09/27 02:50:24;;;;;;;0.20;0.20;;;10.10;99.90;;;;;;5053602;28;20184;-90
2022/09/27 02:53:17;;;;;;;0.20;0.20;;;10.10;99.90;;;;;;5058847;28;21101;-87
2022/09/27 02:56:13;;;;;;;0.20;0.20;;;10.10;99.90;;;;;;5065581;28;20442;-91
2022/09/27 02:58:38;;;;;;;0.20;0.20;;;10.10;99.90;;;;;;5085509;28;20513;-89
2022/09/27 03:01:31;;;;;;;0.20;0.20;;;10.10;99.90;;;;;;5069059;28;20475;-89
2022/09/27 03:04:21;;;;;;;0.20;0.20;;;10.10;99.90;;;;;;5066744;28;20213;-89
2022/09/27 03:06:50;;;;;;;0.20;0.20;;;10.10;99.90;;;;;;5084899;28;20450;-92
2022/09/27 03:09:26;;;;;;;0.20;0.20;;;10.10;99.90;;;;;;5068907;28;20473;-90
2022/09/27 03:11:52;;;;;;;0.20;0.20;;;10.10;99.90;;;;;;5078315;28;20434;-91
2022/09/27 03:14:17;;;;;;;0.20;0.20;;;10.10;99.90;;;;;;5097972;28;20495;-90
2022/09/27 03:16:43;;;;;;;0.20;0.20;;;10.10;99.90;;;;;;5085813;28;20221;-90
2022/09/27 03:19:09;;;;;;;0.20;0.20;;;10.10;99.90;;;;;;5087719;28;20212;-90
2022/09/27 03:21:34;;;;;;;0.20;0.20;;;10.10;99.90;;;;;;5088588;28;20226;-89
2022/09/27 03:24:00;;;;;;;0.20;0.20;;;10.10;99.90;;;;;;5086617;28;20455;-89
2022/09/27 03:26:26;;;;;;;0.20;0.20;;;10.10;99.90;;;;;;5092947;28;20192;-89
2022/09/27 03:28:52;;;;;;;0.20;0.20;;;10.10;99.90;;;;;;5091882;28;20457;-89
2022/09/27 03:31:18;;;;;;;0.20;0.20;;;10.10;99.90;;;;;;5094532;28;20223;-88
2022/09/27 03:33:43;;;;;;;0.20;0.20;;;10.10;99.90;;;;;;5078310;28;20221;-87
2022/09/27 03:36:10;;;;;;;0.17;0.17;;;10.10;99.90;;;;;;5086212;28;20187;-89
2022/09/27 03:38:36;;;;;;;0.20;0.20;;;10.10;99.90;;;;;;5083897;28;20240;-89
2022/09/27 03:41:02;;;;;;;0.20;0.20;;;10.10;99.90;;;;;;5092662;28;20477;-88
2022/09/27 03:43:28;;;;;;;0.20;0.20;;;10.10;99.90;;;;;;5093314;28;20661;-89
2022/09/27 03:45:53;;;;;;;0.20;0.20;;;10.10;99.90;;;;;;5076104;28;20440;-89
2022/09/27 03:48:19;;;;;;;0.20;0.20;;;10.10;99.90;;;;;;5072610;28;20602;-87
2022/09/27 03:50:44;;;;;;;0.20;0.20;;;10.10;99.90;;;;;;5095839;28;20188;-89
2022/09/27 03:53:10;;;;;;;0.20;0.20;;;10.10;99.90;;;;;;5096267;28;20261;-88
2022/09/27 03:55:35;;;;;;;0.20;0.20;;;10.00;99.90;;;;;;5087973;28;20877;-89
2022/09/27 03:58:01;;;;;;;0.20;0.20;;;10.10;99.90;;;;;;5087202;28;20223;-87
2022/09/27 04:00:27;;;;;;;0.20;0.20;;;10.00;99.90;;;;;;5084167;28;20247;-90
2022/09/27 04:02:53;;;;;;;0.20;0.20;;;10.00;99.90;;;;;;5078335;28;20193;-92
2022/09/27 04:05:18;;;;;;;0.20;0.20;;;10.00;99.90;;;;;;5079728;28;20521;-90
2022/09/27 04:07:48;;;;;;;0.20;0.20;;;10.00;99.90;;;;;;5092378;28;20657;-90
2022/09/27 04:10:14;;;;;;;0.20;0.20;;;10.00;99.90;;;;;;5090019;28;20190;-91
2022/09/27 04:12:40;;;;;;;0.20;0.20;;;10.00;99.90;;;;;;5094116;28;20451;-89
2022/09/27 04:15:07;;;;;;;0.20;0.20;;;10.00;99.90;;;;;;5076205;28;20796;-91
2022/09/27 04:17:33;;;;;;;0.20;0.20;;;10.00;99.90;;;;;;5088476;28;20243;-91
2022/09/27 04:19:58;;;;;;;0.20;0.20;;;10.00;99.90;;;;;;5085397;28;20486;-90
2022/09/27 04:22:24;;;;;;;0.20;0.20;;;10.00;99.90;;;;;;5086135;28;20173;-91
2022/09/27 04:24:49;;;;;;;0.20;0.20;;;10.00;99.90;;;;;;5078343;28;20553;-92
2022/09/27 04:27:15;;;;;;;0.20;0.20;;;10.00;99.90;;;;;;5090818;28;20189;-87
2022/09/27 04:29:44;;;;;;;0.20;0.20;;;10.00;99.90;;;;;;5072413;28;20581;-89
2022/09/27 04:32:10;;;;;;;0.20;0.20;;;9.90;99.90;;;;;;5091535;28;20735;-90
2022/09/27 04:37:20;;;;;;;0.20;0.20;;;10.00;99.90;;;;;;5085328;28;20558;-92
2022/09/27 04:39:47;;;;;;;0.20;0.20;;;9.90;99.90;;;;;;5095270;28;20518;-92
2022/09/27 04:42:13;;;;;;;0.20;0.20;;;9.90;99.90;;;;;;5091293;28;20226;-91
2022/09/27 04:44:39;;;;;;;0.20;0.20;;;9.90;99.90;;;;;;5078292;28;20447;-90
2022/09/27 04:47:04;;;;;;;0.20;0.20;;;9.90;99.90;;;;;;5075754;28;20187;-92
2022/09/27 04:49:30;;;;;;;0.20;0.20;;;9.90;99.90;;;;;;5068648;28;20193;-93
2022/09/27 04:51:55;;;;;;;0.20;0.20;;;9.90;99.90;;;;;;5092808;28;20177;-89
2022/09/27 04:54:21;;;;;;;0.20;0.20;;;9.90;99.90;;;;;;5095280;28;20219;-90
2022/09/27 04:56:47;;;;;;;0.20;0.20;;;9.90;99.90;;;;;;5092864;28;20664;-88
2022/09/27 04:59:13;;;;;;;0.20;0.20;;;9.90;99.90;;;;;;5079400;28;20216;-90
2022/09/27 05:01:39;;;;;;;0.20;0.20;;;9.90;99.90;;;;;;5092562;28;20438;-92
2022/09/27 05:04:04;;;;;;;0.20;0.20;;;9.90;99.90;;;;;;5086942;28;20185;-90
2022/09/27 05:06:30;;;;;;;0.20;0.20;;;9.90;99.90;;;;;;5083982;28;20193;-88
2022/09/27 05:08:57;;;;;;;0.20;0.20;;;9.90;99.90;;;;;;5092727;28;20708;-90
2022/09/27 05:11:23;;;;;;;0.20;0.20;;;9.90;99.90;;;;;;5087276;28;20204;-89
2022/09/27 05:13:49;;;;;;;0.20;0.20;;;9.90;99.90;;;;;;5055883;28;20830;-89
2022/09/27 05:16:14;;;;;;;0.20;0.20;;;9.90;99.90;;;;;;5083046;28;20436;-89
2022/09/27 05:18:40;;;;;;;0.20;0.20;;;9.90;99.90;;;;;;5055969;28;21106;-90
2022/09/27 05:21:06;;;;;;;0.20;0.20;;;9.90;99.90;;;;;;5093491;28;20291;-88
2022/09/27 05:23:31;;;;;;;0.20;0.20;;;9.90;99.90;;;;;;5094792;28;20667;-90
2022/09/27 05:25:57;;;;;;;0.20;0.20;;;9.90;99.90;;;;;;5072081;28;20181;-88
2022/09/27 05:28:23;;;;;;;0.20;0.20;;;9.90;99.90;;;;;;5084420;28;20281;-89
2022/09/27 05:30:49;;;;;;;0.20;0.20;;;9.90;99.90;;;;;;5089284;28;20176;-87
2022/09/27 05:33:14;;;;;;;0.20;0.20;;;9.90;99.90;;;;;;5073900;28;20440;-88
2022/09/27 05:35:41;;;;;;;0.20;0.20;;;9.90;99.90;;;;;;5090570;28;20470;-89
2022/09/27 05:38:06;;;;;;;0.20;0.20;;;9.90;99.90;;;;;;5085030;28;20213;-87
2022/09/27 05:40:32;;;;;;;0.20;0.20;;;9.90;99.90;;;;;;5089522;28;20554;-89
2022/09/27 05:42:57;;;;;;;0.20;0.20;;;9.90;99.90;;;;;;5088749;28;20199;-88
2022/09/27 05:45:24;;;;;;;0.20;0.20;;;9.90;99.90;;;;;;5074258;28;20246;-89
2022/09/27 05:47:56;;;;;;;0.20;0.20;;;9.90;99.90;;;;;;5089635;28;20200;-91
2022/09/27 05:50:23;;;;;;;0.20;0.20;;;9.90;99.90;;;;;;5071488;28;20457;-87
2022/09/27 05:52:49;;;;;;;0.20;0.20;;;9.90;99.90;;;;;;5081679;28;20441;-88
2022/09/27 05:55:15;;;;;;;0.20;0.20;;;9.90;99.90;;;;;;5091064;28;20442;-88
2022/09/27 05:57:40;;;;;;;0.20;0.20;;;10.00;99.90;;;;;;5092485;28;20231;-88
2022/09/27 06:00:07;;;;;;;0.20;0.20;;;10.00;99.90;;;;;;5077091;28;20185;-85
2022/09/27 06:02:33;;;;;;;0.20;0.20;;;10.00;99.90;;;;;;5085805;28;20181;-89
2022/09/27 06:04:59;;;;;;;0.20;0.20;;;10.00;99.90;;;;;;5091468;28;20929;-91
2022/09/27 06:07:25;;;;;;;0.20;0.20;;;10.00;99.90;;;;;;5090410;28;20476;-90
2022/09/27 06:09:50;;;;;;;0.20;0.20;;;9.90;99.90;;;;;;5094022;28;20415;-90
2022/09/27 06:12:16;;;;;;;0.20;0.20;;;10.00;99.90;;;;;;5074958;28;20188;-90
2022/09/27 06:14:41;;;;;;;0.20;0.20;;;10.00;99.90;;;;;;5067186;28;20222;-90
2022/09/27 06:17:07;;;;;;;0.20;0.20;;;10.00;99.90;;;;;;5070642;28;20679;-91
2022/09/27 06:19:32;;;;;;;0.20;0.20;;;10.00;99.90;;;;;;5087438;28;20197;-91
2022/09/27 06:21:58;;;;;;;0.20;0.20;;;10.00;99.90;;;;;;5081168;28;20263;-91
2022/09/27 06:24:23;;;;;;;0.20;0.20;;;10.00;99.90;;;;;;5073984;28;20220;-90
2022/09/27 06:26:49;;;;;;;0.20;0.20;;;10.00;99.90;;;;;;5083414;28;20188;-87
2022/09/27 06:29:14;;;;;;;0.20;0.20;;;10.00;99.90;;;;;;5093349;28;20181;-87
2022/09/27 06:31:40;;;;;;;0.20;0.20;;;10.10;99.90;;;;;;5078118;28;20192;-87
2022/09/27 06:34:07;;;;;;;0.20;0.20;;;10.10;99.90;;;;;;5073232;28;20216;-89
2022/09/27 06:36:32;;;;;;;0.20;0.20;;;10.10;99.90;;;;;;5096839;28;20272;-90
2022/09/27 06:39:00;;;;;;;0.20;0.20;;;10.10;99.90;;;;;;5088506;28;20569;-87
2022/09/27 06:41:26;;;;;;;0.20;0.20;;;10.10;99.90;;;;;;5059367;28;20181;-92
2022/09/27 06:43:51;;;;;;;0.20;0.20;;;10.10;99.90;;;;;;5074245;28;20439;-90
2022/09/27 06:46:17;;;;;;;0.20;0.20;;;10.10;99.90;;;;;;5068968;28;20181;-87
2022/09/27 06:48:42;;;;;;;0.20;0.20;;;10.10;99.90;;;;;;5060465;28;20181;-88
2022/09/27 06:51:08;;;;;;;0.20;0.20;;;10.10;99.90;;;;;;5068800;28;20212;-86
2022/09/27 06:53:33;;;;;;;0.20;0.20;;;10.20;99.90;;;;;;5084014;28;20189;-85
2022/09/27 06:56:00;;;;;;;0.20;0.20;;;10.20;99.90;;;;;;5090117;28;20184;-86
2022/09/27 07:01:11;;;;;;;0.20;0.20;;;10.20;99.90;;;;;;5088357;28;20445;-86
2022/09/27 07:03:40;;;;;;;0.20;0.20;;;10.20;99.90;;;;;;5084743;28;20451;-86
2022/09/27 07:06:10;;;;;;;0.20;0.20;;;10.20;99.90;;;;;;5094442;28;20181;-87
2022/09/27 07:08:36;;;;;;;0.20;0.20;;;10.10;99.90;;;;;;5071603;28;20838;-86
2022/09/27 07:11:06;;;;;;;0.20;0.20;;;10.20;99.90;;;;;;5086275;28;20443;-86
2022/09/27 07:13:33;;;;;;;0.20;0.20;;;10.20;99.90;;;;;;5086992;28;20482;-86
2022/09/27 07:15:59;;;;;;;0.20;0.20;;;10.20;99.90;;;;;;5069609;28;20465;-86
2022/09/27 07:18:25;;;;;;;0.20;0.20;;;10.20;99.90;;;;;;5082144;28;20486;-86
2022/09/27 07:20:51;;;;;;;0.30;0.30;;;10.20;99.90;;;;;;5078514;28;20835;-86
2022/09/27 07:23:18;;;;;;;0.20;0.20;;;10.20;99.90;;;;;;5071206;28;20451;-84
2022/09/27 07:25:43;;;;;;;0.20;0.20;;;10.30;99.90;;;;;;5083839;28;20440;-85
2022/09/27 07:28:16;;;;;;;0.20;0.20;;;10.40;99.90;;;;;;5064749;28;20504;-85
2022/09/27 07:30:42;;;;;;;0.20;0.20;;;10.40;99.90;;;;;;5086206;28;20193;-85
2022/09/27 07:33:08;;;;;;;0.20;0.20;;;10.50;99.90;;;;;;5071328;28;20462;-85
2022/09/27 07:35:38;;;;;;;0.20;0.20;;;10.50;99.90;;;;;;5087758;28;21082;-86
2022/09/27 07:38:07;;;;;;;0.20;0.20;;;10.50;99.90;;;;;;5073629;28;20475;-85
2022/09/27 07:40:34;;;;;;;0.20;0.20;;;10.30;99.90;;;;;;5076076;28;20435;-85
2022/09/27 07:43:00;;;;;;;0.20;0.20;;;10.40;99.90;;;;;;5093235;28;20475;-85
2022/09/27 07:45:25;;;;;;;0.20;0.20;;;10.50;99.90;;;;;;5065975;28;20442;-85
2022/09/27 07:47:51;;;;;;;0.20;0.20;;;10.60;99.90;;;;;;5088055;28;20193;-85
2022/09/27 07:50:17;;;;;;;0.13;0.13;;;10.60;99.90;;;;;;5074022;28;20197;-84
2022/09/27 07:52:45;;;;;;;0.20;0.20;;;10.70;99.90;;;;;;5060105;28;20471;-84
2022/09/27 07:55:12;;;;;;;0.20;0.20;;;10.60;99.90;;;;;;5083015;28;20205;-83
2022/09/27 07:57:39;;;;;;;0.10;0.10;;;10.70;99.90;;;;;;5088853;28;20552;-85
2022/09/27 08:00:07;;;;;;;0.20;0.20;;;10.70;99.90;;;;;;5083259;28;20942;-85
2022/09/27 08:02:32;;;;;;;0.10;0.10;;;10.80;99.90;;;;;;5085578;28;20442;-85
2022/09/27 08:04:59;;;;;;;0.20;0.20;;;10.90;99.90;;;;;;5085639;28;20448;-84
2022/09/27 08:07:25;;;;;;;0.20;0.20;;;10.90;99.90;;;;;;5086863;28;20271;-84
2022/09/27 08:09:50;;;;;;;0.20;0.20;;;10.80;99.90;;;;;;5085564;28;20934;-84
2022/09/27 08:12:16;;;;;;;0.20;0.20;;;10.80;99.90;;;;;;5067974;28;20492;-83
2022/09/27 08:14:42;;;;;;;0.10;0.10;;;10.80;99.90;;;;;;5088381;28;20234;-84
2022/09/27 08:17:11;;;;;;;0.20;0.20;;;10.80;99.90;;;;;;5068877;28;20188;-84
2022/09/27 08:19:38;;;;;;;0.20;0.20;;;10.80;99.90;;;;;;5091115;28;20458;-83
2022/09/27 08:22:04;;;;;;;0.20;0.20;;;10.80;99.90;;;;;;5068705;28;20531;-84
2022/09/27 08:24:29;;;;;;;0.20;0.20;;;10.80;99.90;;;;;;5082191;28;20542;-84
2022/09/27 08:26:55;;;;;;;0.20;0.20;;;10.90;99.90;;;;;;5070999;28;20181;-83
2022/09/27 08:29:20;;;;;;;0.20;0.20;;;10.90;99.90;;;;;;5072340;28;20181;-82
2022/09/27 08:31:46;;;;;;;0.20;0.20;;;11.00;99.90;;;;;;5083541;28;20618;-82
2022/09/27 08:34:11;;;;;;;0.20;0.20;;;11.00;99.90;;;;;;5082235;28;20685;-83
2022/09/27 08:36:37;;;;;;;0.10;0.10;;;11.10;99.90;;;;;;5087023;28;20233;-84
2022/09/27 08:39:03;;;;;;;0.10;0.10;;;11.20;99.90;;;;;;5087606;28;20233;-83
2022/09/27 08:41:45;;;;;;;0.20;0.20;;;11.20;99.90;;;;;;5080530;28;20276;-84
2022/09/27 08:44:23;;;;;;;0.10;0.10;;;11.20;99.90;;;;;;5068652;28;20443;-82
2022/09/27 08:47:00;;;;;;;0.10;0.10;;;11.20;99.90;;;;;;5075121;28;20453;-83
2022/09/27 08:49:47;;;;;;;0.20;0.20;;;11.30;99.90;;;;;;5088942;28;20442;-84
2022/09/27 08:52:36;;;;;;;0.20;0.20;;;11.40;99.90;;;;;;5090662;28;20531;-84
2022/09/27 08:55:05;;;;;;;0.20;0.20;;;11.40;99.90;;;;;;5090239;28;20439;-84
2022/09/27 08:57:31;;;;;;;0.13;0.13;;;11.40;99.90;;;;;;5087216;28;20471;-85
2022/09/27 09:00:05;;;;;;;0.10;0.10;;;11.50;99.90;;;;;;5068169;28;20452;-84
2022/09/27 09:02:31;;;;;;;0.10;0.10;;;11.50;99.90;;;;;;5070032;28;20683;-84
2022/09/27 09:05:07;;;;;;;0.20;0.20;;;11.50;99.90;;;;;;5092586;28;20442;-83
2022/09/27 09:07:47;;;;;;;0.20;0.20;;;11.50;99.90;;;;;;5092426;28;20188;-86
2022/09/27 09:13:40;;;;;;;0.13;0.13;;;11.70;99.90;;;;;;5081019;28;20493;-84
2022/09/27 09:16:37;;;;;;;0.10;0.10;;;11.60;99.90;;;;;;5082712;28;21902;-85
2022/09/27 09:19:15;;;;;;;0.10;0.10;;;11.70;99.90;;;;;;5088822;28;20486;-86
2022/09/27 09:22:05;;;;;;;0.20;0.20;;;11.70;99.90;;;;;;5087671;28;20450;-83
2022/09/27 09:24:42;;;;;;;0.10;0.10;;;11.60;99.90;;;;;;5070861;28;20466;-85
2022/09/27 09:27:28;;;;;;;0.20;0.20;;;11.50;99.90;;;;;;5062489;28;20454;-86
2022/09/27 09:29:54;;;;;;;0.20;0.20;;;11.60;99.90;;;;;;5064452;28;21050;-84
2022/09/27 09:32:49;;;;;;;0.10;0.10;;;11.60;99.90;;;;;;5081887;28;20540;-83
2022/09/27 09:35:22;;;;;;;0.10;0.10;;;11.60;99.90;;;;;;5091603;28;20247;-87
2022/09/27 09:37:51;;;;;;;0.10;0.10;;;11.70;99.90;;;;;;5097366;28;20462;-86
2022/09/27 09:40:19;;;;;;;0.20;0.20;;;11.70;99.90;;;;;;5071125;28;20813;-84
2022/09/27 09:43:10;;;;;;;0.10;0.10;;;11.50;99.90;;;;;;5090366;28;20522;-83
2022/09/27 09:45:41;;;;;;;0.10;0.10;;;11.50;99.90;;;;;;5078466;28;20500;-83
2022/09/27 09:48:14;;;;;;;0.10;0.10;;;11.40;99.90;;;;;;5069094;28;20850;-84
2022/09/27 09:50:46;;;;;;;0.10;0.10;;;11.40;99.90;;;;;;5070076;28;20992;-84
2022/09/27 09:53:40;;;;;;;0.20;0.20;;;11.30;99.90;;;;;;5088650;28;20427;-83
2022/09/27 09:56:18;;;;;;;0.13;0.13;;;11.20;99.90;;;;;;5078101;28;20455;-83
2022/09/27 09:58:52;;;;;;;0.10;0.10;;;11.20;99.90;;;;;;5084973;28;20596;-83
2022/09/27 10:01:25;;;;;;;0.10;0.10;;;11.20;99.90;;;;;;5068371;28;20967;-83
2022/09/27 10:03:50;;;;;;;0.10;0.10;;;11.10;99.90;;;;;;5071538;28;20934;-84
2022/09/27 10:06:17;;;;;;;0.20;0.20;;;11.10;99.90;;;;;;5079436;28;20506;-83
2022/09/27 10:08:43;;;;;;;0.10;0.10;;;11.10;99.90;;;;;;5085729;28;20185;-83
2022/09/27 10:11:22;;;;;;;0.17;0.17;;;11.20;99.90;;;;;;5089058;28;21255;-85
2022/09/27 10:13:47;;;;;;;0.20;0.20;;;11.20;99.90;;;;;;5087315;28;20299;-82
2022/09/27 10:16:16;;;;;;;0.10;0.10;;;11.20;99.90;;;;;;5085309;28;20938;-83
2022/09/27 10:18:42;;;;;;;0.10;0.10;;;11.30;99.90;;;;;;5088347;28;20253;-83
2022/09/27 10:21:28;;;;;;;0.10;0.10;;;11.40;99.90;;;;;;5087922;28;20473;-84
2022/09/27 10:24:08;;;;;;;0.10;0.10;;;11.40;99.90;;;;;;5067985;28;20196;-85
2022/09/27 10:26:35;;;;;;;0.10;0.10;;;11.40;99.90;;;;;;5059400;28;20981;-85
2022/09/27 10:29:42;;;;;;;0.10;0.10;;;11.40;99.90;;;;;;5089228;28;20441;-85
2022/09/27 10:32:23;;;;;;;0.10;0.10;;;11.50;99.90;;;;;;5086848;28;20542;-80
2022/09/27 10:34:50;;;;;;;0.20;0.20;;;11.60;99.90;;;;;;5069087;28;20439;-84
2022/09/27 10:37:20;;;;;;;0.10;0.10;;;11.60;99.90;;;;;;5068554;28;20447;-84
2022/09/27 10:39:47;;;;;;;0.20;0.20;;;11.70;99.90;;;;;;5089639;28;20783;-82
2022/09/27 10:42:36;;;;;;;0.10;0.10;;;11.80;99.90;;;;;;5058602;28;20431;-83
2022/09/27 10:45:29;;;;;;;0.10;0.10;;;11.80;99.90;;;;;;5074077;28;20472;-89
2022/09/27 10:47:56;;;;;;;0.10;0.10;;;11.90;99.90;;;;;;5082204;28;20447;-81
2022/09/27 10:50:30;;;;;;;0.10;0.10;;;11.80;99.90;;;;;;5086626;28;20765;-85
2022/09/27 10:53:17;;;;;;;0.10;0.10;;;11.90;99.90;;;;;;5085819;28;20530;-82
2022/09/27 10:55:47;;;;;;;0.10;0.10;;;12.00;99.90;;;;;;5083876;28;20538;-85
2022/09/27 10:58:29;;;;;;;0.10;0.10;;;11.80;99.90;;;;;;5068722;28;20475;-83
2022/09/27 11:01:02;;;;;;;0.20;0.20;;;11.90;99.90;;;;;;5066926;28;20993;-84
2022/09/27 11:03:31;;;;;;;0.10;0.10;;;11.80;99.90;;;;;;5075492;28;20932;-84
2022/09/27 11:05:58;;;;;;;0.10;0.10;;;11.90;99.90;;;;;;5096065;28;20454;-85
2022/09/27 11:08:31;;;;;;;0.20;0.20;;;12.00;99.90;;;;;;5084585;28;20891;-84
2022/09/27 11:11:03;;;;;;;0.10;0.10;;;11.90;99.90;;;;;;5080237;28;20478;-83
2022/09/27 11:13:31;;;;;;;0.10;0.10;;;11.90;99.90;;;;;;5088352;28;20494;-83
2022/09/27 11:16:25;;;;;;;0.17;0.17;;;12.00;99.90;;;;;;5081085;28;20830;-83
2022/09/27 11:19:18;;;;;;;0.20;0.20;;;12.00;99.90;;;;;;5088948;28;20571;-83
2022/09/27 11:21:55;;;;;;;0.10;0.10;;;11.90;99.90;;;;;;5083326;28;20431;-83
2022/09/27 11:24:27;;;;;;;0.20;0.20;;;12.10;99.90;;;;;;5082162;28;20439;-83
2022/09/27 11:27:11;;;;;;;0.10;0.10;;;12.00;99.90;;;;;;5087701;28;20435;-86
2022/09/27 11:30:02;;;;;;;0.10;0.10;;;12.20;99.90;;;;;;5086605;28;20447;-86
2022/09/27 11:33:05;;;;;;;0.20;0.20;;;12.20;99.90;;;;;;5091538;28;20442;-84
2022/09/27 11:36:03;;;;;;;0.20;0.20;;;12.00;99.90;;;;;;5086332;28;20439;-87
2022/09/27 11:38:34;;;;;;;0.20;0.20;;;11.90;99.90;;;;;;5090287;28;20497;-84
2022/09/27 11:41:15;;;;;;;0.20;0.20;;;11.90;99.90;;;;;;5068369;28;20882;-84
2022/09/27 11:44:18;;;;;;;0.10;0.10;;;11.90;99.90;;;;;;5082100;28;20449;-86
2022/09/27 11:46:51;;;;;;;0.10;0.10;;;12.00;99.90;;;;;;5081166;28;20443;-86
2022/09/27 11:49:37;;;;;;;0.10;0.10;;;11.90;99.90;;;;;;5078749;28;20455;-86
2022/09/27 11:52:29;;;;;;;0.13;0.13;;;11.90;99.90;;;;;;5078226;28;20457;-85
2022/09/27 11:55:02;;;;;;;0.10;0.10;;;12.00;99.90;;;;;;5079810;28;20458;-85
2022/09/27 11:57:42;;;;;;;0.10;0.10;;;11.90;99.90;;;;;;5087599;28;20450;-84
2022/09/27 12:00:14;;;;;;;0.20;0.20;;;12.00;99.90;;;;;;5086960;28;20446;-86
2022/09/27 12:03:15;;;;;;;0.10;0.10;;;12.00;99.90;;;;;;5084961;28;20438;-86
2022/09/27 12:06:09;;;;;;;0.10;0.10;;;12.10;99.90;;;;;;5071015;28;20845;-85
2022/09/27 12:09:01;;;;;;;0.10;0.10;;;12.20;99.90;;;;;;5065535;28;20439;-86
2022/09/27 12:11:47;;;;;;;0.10;0.10;;;12.40;99.90;;;;;;5066007;28;20447;-87
2022/09/27 12:14:33;;;;;;;0.10;0.10;;;12.50;99.90;;;;;;5091510;28;20470;-89
2022/09/27 12:17:02;;;;;;;0.10;0.10;;;12.60;99.90;;;;;;5062238;28;20447;-88
2022/09/27 12:19:31;;;;;;;0.10;0.10;;;12.70;99.90;;;;;;5078338;28;20646;-84
2022/09/27 12:22:00;;;;;;;0.10;0.10;;;12.50;99.90;;;;;;5073146;28;20451;-86
2022/09/27 12:24:26;;;;;;;0.20;0.20;;;12.50;99.90;;;;;;5072741;28;20464;-89
2022/09/27 12:26:57;;;;;;;0.10;0.10;;;12.50;99.90;;;;;;5074759;28;20478;-89
2022/09/27 12:29:38;;;;;;;0.20;0.20;;;12.40;99.90;;;;;;5087141;28;20547;-87
2022/09/27 12:32:08;;;;;;;0.13;0.13;;;12.30;99.90;;;;;;5072869;28;20431;-88
2022/09/27 12:34:43;;;;;;;0.20;0.20;;;12.20;99.90;;;;;;5093435;28;20443;-88
2022/09/27 12:37:18;;;;;;;0.10;0.10;;;12.20;99.90;;;;;;5072955;28;20938;-86
2022/09/27 12:40:05;;;;;;;0.10;0.10;;;12.30;99.90;;;;;;5090111;28;20458;-86
2022/09/27 12:42:38;;;;;;;0.10;0.10;;;12.20;99.90;;;;;;5084436;28;20819;-85
2022/09/27 12:45:09;;;;;;;0.10;0.10;;;12.10;99.90;;;;;;5090328;28;20467;-87
2022/09/27 12:47:59;;;;;;;0.10;0.10;;;12.20;99.90;;;;;;5079357;28;20475;-87
2022/09/27 12:50:42;;;;;;;0.10;0.10;;;12.20;99.90;;;;;;5069587;28;20443;-86
2022/09/27 12:53:22;;;;;;;0.10;0.10;;;12.20;99.90;;;;;;5080297;28;20471;-82
2022/09/27 12:56:02;;;;;;;0.10;0.10;;;12.20;99.90;;;;;;5075747;28;20448;-80
2022/09/27 12:58:39;;;;;;;0.10;0.10;;;12.10;99.90;;;;;;5070870;28;20467;-84
2022/09/27 13:01:23;;;;;;;0.10;0.10;;;12.10;99.90;;;;;;5088952;28;20515;-84
2022/09/27 13:04:28;;;;;;;0.10;0.10;;;12.00;99.90;;;;;;5069609;28;20533;-90
2022/09/27 13:07:16;;;;;;;0.10;0.10;;;12.00;99.90;;;;;;5072576;28;20945;-88
2022/09/27 13:10:00;;;;;;;0.20;0.20;;;12.10;99.90;;;;;;5067500;28;20450;-87
2022/09/27 13:12:28;;;;;;;0.17;0.17;;;12.00;99.90;;;;;;5070873;28;20439;-87
2022/09/27 13:15:17;;;;;;;0.20;0.20;;;12.00;99.90;;;;;;5087218;28;20440;-88
2022/09/27 13:17:43;;;;;;;0.20;0.20;;;12.00;99.90;;;;;;5069624;28;20463;-89
2022/09/27 13:20:33;;;;;;;0.10;0.10;;;12.00;99.90;;;;;;5068101;28;20580;-90
2022/09/27 13:23:22;;;;;;;0.13;0.13;;;12.00;99.90;;;;;;5077746;28;20197;-90
2022/09/27 13:25:56;;;;;;;0.10;0.10;;;12.10;99.90;;;;;;5066227;28;20451;-90